Time;durP1;ratioP1;P1;durP2;ratioP2;P2;SDS_P1;SDS_P2;PMS_P1;PMS_P2;Temp;Humidity;BMP_temperature;BMP_pressure;BME280_temperature;BME280_humidity;BME280_pressure;Samples;Min_cycle;Max_cycle;Signal;HPM_P1;HPM_P2
2023/03/18 00:01:23;;;;;;;5.57;1.70;;;11.60;99.90;;;;;;5055176;28;20408;-85
2023/03/18 00:03:50;;;;;;;8.40;1.90;;;11.60;99.90;;;;;;5048577;28;20444;-86
2023/03/18 00:06:20;;;;;;;5.05;1.38;;;11.50;99.90;;;;;;5063662;28;21049;-86
2023/03/18 00:08:49;;;;;;;6.75;1.70;;;11.50;99.90;;;;;;5085008;28;20511;-86
2023/03/18 00:11:20;;;;;;;5.30;1.77;;;11.50;99.90;;;;;;5069499;28;20435;-85
2023/03/18 00:13:48;;;;;;;7.03;1.65;;;11.50;99.90;;;;;;5045620;28;20455;-85
2023/03/18 00:16:16;;;;;;;6.05;1.80;;;11.50;99.90;;;;;;5050565;28;20491;-85
2023/03/18 00:18:42;;;;;;;6.25;1.67;;;11.50;99.90;;;;;;5052132;28;20938;-85
2023/03/18 00:21:09;;;;;;;9.38;1.85;;;11.50;99.90;;;;;;5048639;28;20409;-86
2023/03/18 00:23:37;;;;;;;8.00;1.88;;;11.50;99.90;;;;;;5054445;28;20403;-86
2023/03/18 00:26:05;;;;;;;8.45;1.92;;;11.50;99.90;;;;;;5062027;28;20405;-86
2023/03/18 00:28:32;;;;;;;5.25;1.63;;;11.50;99.90;;;;;;5053918;28;20407;-85
2023/03/18 00:31:08;;;;;;;6.82;1.75;;;11.50;99.90;;;;;;5053533;28;20438;-85
2023/03/18 00:33:42;;;;;;;9.25;1.95;;;11.50;99.90;;;;;;5056430;28;20410;-86
2023/03/18 00:36:13;;;;;;;8.15;2.13;;;11.50;99.90;;;;;;5068925;28;20419;-85
2023/03/18 00:38:42;;;;;;;8.50;2.17;;;11.50;99.90;;;;;;5054279;28;20490;-85
2023/03/18 00:41:10;;;;;;;8.18;2.47;;;11.50;99.90;;;;;;5053885;28;20410;-86
2023/03/18 00:43:51;;;;;;;9.07;2.35;;;11.50;99.90;;;;;;5047172;28;20961;-86
2023/03/18 00:46:37;;;;;;;8.25;2.15;;;11.50;99.90;;;;;;5052238;28;20422;-86
2023/03/18 00:49:07;;;;;;;7.93;2.00;;;11.50;99.90;;;;;;5050751;28;20418;-86
2023/03/18 00:51:38;;;;;;;6.75;1.98;;;11.50;99.90;;;;;;5052680;28;20411;-86
2023/03/18 00:54:08;;;;;;;7.40;1.70;;;11.50;99.90;;;;;;5066512;28;20421;-86
2023/03/18 00:56:36;;;;;;;8.63;1.98;;;11.50;99.90;;;;;;5051112;28;20419;-86
2023/03/18 00:59:07;;;;;;;6.60;1.98;;;11.50;99.90;;;;;;5052467;28;20460;-85
2023/03/18 01:01:36;;;;;;;7.13;2.58;;;11.50;99.90;;;;;;5053186;28;21096;-85
2023/03/18 01:04:03;;;;;;;6.10;1.92;;;11.50;99.90;;;;;;5051711;28;20500;-85
2023/03/18 01:06:32;;;;;;;6.78;2.03;;;11.50;99.90;;;;;;5051953;28;20465;-86
2023/03/18 01:09:00;;;;;;;6.13;2.10;;;11.50;99.90;;;;;;5053420;28;20477;-85
2023/03/18 01:11:29;;;;;;;8.40;2.38;;;11.50;99.90;;;;;;5054454;28;20486;-86
2023/03/18 01:13:58;;;;;;;8.40;2.55;;;11.50;99.90;;;;;;5051697;28;20493;-86
2023/03/18 01:16:28;;;;;;;6.57;1.90;;;11.50;99.90;;;;;;5048678;28;20396;-86
2023/03/18 01:19:00;;;;;;;8.75;2.00;;;11.50;99.90;;;;;;5056833;28;20456;-86
2023/03/18 01:21:26;;;;;;;6.47;1.70;;;11.50;99.90;;;;;;5093159;28;20411;-85
2023/03/18 01:23:53;;;;;;;7.80;1.80;;;11.50;99.90;;;;;;5054717;28;20737;-87
2023/03/18 01:26:22;;;;;;;5.80;1.80;;;11.40;99.90;;;;;;5047584;28;20511;-86
2023/03/18 01:28:49;;;;;;;6.88;1.88;;;11.40;99.90;;;;;;5055150;28;20526;-85
2023/03/18 01:31:17;;;;;;;5.20;1.67;;;11.40;99.90;;;;;;5055485;28;20410;-86
2023/03/18 01:33:46;;;;;;;4.80;1.77;;;11.30;99.90;;;;;;5053197;28;20403;-86
2023/03/18 01:36:14;;;;;;;5.93;1.80;;;11.30;99.90;;;;;;5057863;28;20409;-86
2023/03/18 01:38:41;;;;;;;5.22;1.60;;;11.40;99.90;;;;;;5049423;28;20410;-87
2023/03/18 01:41:09;;;;;;;5.00;1.70;;;11.30;99.90;;;;;;5056246;28;20427;-85
2023/03/18 01:43:39;;;;;;;4.93;1.90;;;11.30;99.90;;;;;;5066873;28;20498;-86
2023/03/18 01:46:32;;;;;;;6.60;1.73;;;11.30;99.90;;;;;;5050248;28;20503;-86
2023/03/18 01:49:03;;;;;;;6.35;1.67;;;11.20;99.90;;;;;;5042605;28;20433;-85
2023/03/18 01:51:30;;;;;;;5.88;1.70;;;11.20;99.90;;;;;;5074610;28;20420;-85
2023/03/18 01:54:02;;;;;;;5.60;1.70;;;11.10;99.90;;;;;;5053058;28;20400;-86
2023/03/18 01:56:29;;;;;;;4.53;1.13;;;11.10;99.90;;;;;;5053253;28;20497;-85
2023/03/18 01:58:59;;;;;;;5.97;1.67;;;11.00;99.90;;;;;;5047766;28;20397;-86
2023/03/18 02:02:02;;;;;;;4.30;1.50;;;11.00;99.90;;;;;;5052562;28;20412;-86
2023/03/18 02:04:35;;;;;;;5.10;1.60;;;11.00;99.90;;;;;;5057089;28;20853;-86
2023/03/18 02:07:04;;;;;;;2.97;1.20;;;10.90;99.90;;;;;;5046690;28;20444;-85
2023/03/18 02:09:30;;;;;;;3.55;1.20;;;10.90;99.90;;;;;;5050550;28;20460;-85
2023/03/18 02:12:00;;;;;;;4.50;1.50;;;10.80;99.90;;;;;;5052643;28;20933;-86
2023/03/18 02:14:26;;;;;;;2.53;1.15;;;10.90;99.90;;;;;;5051483;28;20396;-86
2023/03/18 02:17:13;;;;;;;6.68;1.10;;;10.80;99.90;;;;;;5050223;28;20399;-86
2023/03/18 02:19:53;;;;;;;4.65;1.20;;;10.90;99.90;;;;;;5058474;28;20411;-85
2023/03/18 02:22:46;;;;;;;5.18;1.30;;;10.80;99.90;;;;;;5052107;28;20411;-86
2023/03/18 02:25:36;;;;;;;3.40;1.20;;;10.70;99.90;;;;;;5077644;28;20424;-86
2023/03/18 02:28:11;;;;;;;4.80;1.30;;;10.70;99.90;;;;;;5047382;28;20413;-86
2023/03/18 02:30:58;;;;;;;3.93;1.27;;;10.70;99.90;;;;;;5052814;28;20455;-85
2023/03/18 02:33:32;;;;;;;4.37;1.20;;;10.70;99.90;;;;;;5069300;28;21123;-86
2023/03/18 02:36:08;;;;;;;3.72;1.23;;;10.60;99.90;;;;;;5051063;28;20415;-86
2023/03/18 02:38:34;;;;;;;4.95;1.30;;;10.50;99.90;;;;;;5061932;28;21155;-86
2023/03/18 02:41:01;;;;;;;4.40;1.48;;;10.40;99.90;;;;;;5052125;28;20414;-86
2023/03/18 02:43:32;;;;;;;4.65;1.20;;;10.50;99.90;;;;;;5077788;28;20442;-85
2023/03/18 02:46:26;;;;;;;5.45;1.35;;;10.50;99.90;;;;;;5053085;28;20417;-86
2023/03/18 02:48:58;;;;;;;5.30;1.50;;;10.50;99.90;;;;;;5047789;28;20438;-86
2023/03/18 02:51:26;;;;;;;6.20;1.40;;;10.50;99.90;;;;;;5051380;28;20506;-86
2023/03/18 02:54:04;;;;;;;4.07;1.55;;;10.60;99.90;;;;;;5052671;28;20450;-86
2023/03/18 02:56:31;;;;;;;3.78;1.40;;;10.60;99.90;;;;;;5060012;28;20497;-86
2023/03/18 02:58:58;;;;;;;6.38;1.42;;;10.50;99.90;;;;;;5051139;28;20399;-86
2023/03/18 03:01:24;;;;;;;9.07;1.30;;;10.50;99.90;;;;;;5051893;28;20412;-85
2023/03/18 03:03:50;;;;;;;4.28;1.25;;;10.50;99.90;;;;;;5061289;28;20413;-86
2023/03/18 03:06:17;;;;;;;8.10;1.30;;;10.50;99.90;;;;;;5052448;28;20419;-86
2023/03/18 03:08:50;;;;;;;4.97;1.30;;;10.50;99.90;;;;;;5049720;28;20418;-86
2023/03/18 03:11:17;;;;;;;6.22;1.40;;;10.50;99.90;;;;;;5050648;28;20439;-86
2023/03/18 03:13:50;;;;;;;4.28;1.58;;;10.50;99.90;;;;;;5069293;28;20454;-86
2023/03/18 03:16:18;;;;;;;4.88;1.50;;;10.60;99.90;;;;;;5050885;28;20519;-86
2023/03/18 03:18:49;;;;;;;7.03;1.50;;;10.70;99.90;;;;;;5042805;28;20965;-86
2023/03/18 03:21:17;;;;;;;3.95;1.30;;;10.70;99.90;;;;;;5049611;28;20409;-86
2023/03/18 03:23:46;;;;;;;6.90;1.90;;;10.80;99.90;;;;;;5050636;28;20433;-86
2023/03/18 03:26:14;;;;;;;4.95;1.50;;;10.80;99.90;;;;;;5068599;28;20403;-86
2023/03/18 03:28:41;;;;;;;4.20;1.40;;;10.80;99.90;;;;;;5051169;28;20541;-85
2023/03/18 03:31:09;;;;;;;4.65;1.40;;;10.70;99.90;;;;;;5051000;28;20557;-86
2023/03/18 03:33:40;;;;;;;3.70;1.23;;;10.60;99.90;;;;;;5049657;28;20494;-86
2023/03/18 03:36:13;;;;;;;4.93;1.38;;;10.60;99.90;;;;;;5045879;28;20403;-86
2023/03/18 03:38:41;;;;;;;4.10;1.35;;;10.60;99.90;;;;;;5054538;28;20750;-85
2023/03/18 03:41:10;;;;;;;2.80;1.02;;;10.50;99.90;;;;;;5051364;28;20443;-86
2023/03/18 03:43:39;;;;;;;3.30;1.10;;;10.50;99.90;;;;;;5051018;28;20919;-85
2023/03/18 03:46:09;;;;;;;3.65;1.30;;;10.50;99.90;;;;;;5058250;28;20787;-85
2023/03/18 03:48:38;;;;;;;4.47;1.35;;;10.40;99.90;;;;;;5068541;28;20498;-86
2023/03/18 03:51:06;;;;;;;3.97;1.10;;;10.40;99.90;;;;;;5048837;28;20537;-85
2023/03/18 03:53:38;;;;;;;5.60;1.40;;;10.30;99.90;;;;;;5051314;28;20421;-87
2023/03/18 03:56:06;;;;;;;4.28;1.27;;;10.30;99.90;;;;;;5057773;28;20403;-85
2023/03/18 03:58:36;;;;;;;5.05;1.42;;;10.30;99.90;;;;;;5053961;28;20404;-85
2023/03/18 04:01:05;;;;;;;4.05;1.35;;;10.20;99.90;;;;;;5043088;28;20445;-85
2023/03/18 04:03:32;;;;;;;4.22;1.27;;;10.30;99.90;;;;;;5052089;28;20486;-86
2023/03/18 04:05:59;;;;;;;5.82;1.70;;;10.30;99.90;;;;;;5053762;28;20407;-86
2023/03/18 04:08:28;;;;;;;5.47;1.27;;;10.30;99.90;;;;;;5052564;28;20408;-88
2023/03/18 04:10:54;;;;;;;3.77;1.10;;;10.30;99.90;;;;;;5051484;28;20563;-86
2023/03/18 04:13:21;;;;;;;3.65;1.05;;;10.30;99.90;;;;;;5065708;28;20407;-86
2023/03/18 04:15:47;;;;;;;2.83;1.17;;;10.40;99.90;;;;;;5050409;28;20432;-85
2023/03/18 04:18:15;;;;;;;4.47;1.35;;;10.40;99.90;;;;;;5051450;28;20460;-84
2023/03/18 04:20:43;;;;;;;3.35;1.38;;;10.30;99.90;;;;;;5051193;28;20802;-85
2023/03/18 04:23:09;;;;;;;2.90;1.20;;;10.30;99.90;;;;;;5081904;28;20527;-85
2023/03/18 04:25:36;;;;;;;4.85;1.20;;;10.30;99.90;;;;;;5046661;28;20436;-86
2023/03/18 04:28:07;;;;;;;3.50;1.13;;;10.30;99.90;;;;;;5068159;28;20929;-85
2023/03/18 04:30:34;;;;;;;3.25;0.98;;;10.40;99.90;;;;;;5068462;28;20415;-85
2023/03/18 04:33:02;;;;;;;4.68;1.30;;;10.40;99.90;;;;;;5048437;28;20416;-86
2023/03/18 04:35:28;;;;;;;2.78;1.00;;;10.40;99.90;;;;;;5056432;28;20437;-86
2023/03/18 04:37:55;;;;;;;4.60;1.30;;;10.40;99.90;;;;;;5052930;28;20403;-86
2023/03/18 04:40:21;;;;;;;4.10;1.10;;;10.40;99.90;;;;;;5080271;28;20415;-86
2023/03/18 04:42:52;;;;;;;4.03;1.30;;;10.40;99.90;;;;;;5055455;28;20418;-85
2023/03/18 04:45:18;;;;;;;3.50;1.13;;;10.40;99.90;;;;;;5051419;28;20462;-86
2023/03/18 04:47:46;;;;;;;3.10;0.95;;;10.50;99.90;;;;;;5068737;28;20407;-85
2023/03/18 04:50:14;;;;;;;4.18;1.10;;;10.50;99.90;;;;;;5052396;28;20509;-86
2023/03/18 04:52:42;;;;;;;3.20;1.10;;;10.50;99.90;;;;;;5051079;28;20409;-86
2023/03/18 04:55:10;;;;;;;3.97;1.38;;;10.60;99.90;;;;;;5048958;28;20402;-86
2023/03/18 04:57:43;;;;;;;4.00;1.33;;;10.60;99.90;;;;;;5051675;28;20414;-86
2023/03/18 05:00:16;;;;;;;3.13;1.20;;;10.60;99.90;;;;;;5052620;28;21066;-85
2023/03/18 05:02:42;;;;;;;3.63;1.17;;;10.60;99.90;;;;;;5053735;28;21230;-86
2023/03/18 05:05:10;;;;;;;2.70;1.00;;;10.70;99.90;;;;;;5057007;28;20414;-85
2023/03/18 05:07:37;;;;;;;4.27;1.10;;;10.70;99.90;;;;;;5067029;28;20498;-86
2023/03/18 05:10:05;;;;;;;4.75;1.40;;;10.70;99.90;;;;;;5102564;28;20507;-86
2023/03/18 05:12:33;;;;;;;3.10;1.13;;;10.80;99.90;;;;;;5049579;28;20507;-86
2023/03/18 05:14:59;;;;;;;4.45;1.20;;;10.80;99.90;;;;;;5051696;28;20407;-85
2023/03/18 05:17:25;;;;;;;3.55;1.10;;;10.90;99.90;;;;;;5050014;28;20495;-85
2023/03/18 05:19:52;;;;;;;3.45;1.20;;;11.00;99.90;;;;;;5049970;28;20422;-85
2023/03/18 05:22:20;;;;;;;4.72;1.27;;;11.00;99.90;;;;;;5049706;28;20490;-86
2023/03/18 05:24:48;;;;;;;3.22;1.17;;;11.10;99.90;;;;;;5051722;28;20404;-87
2023/03/18 05:27:19;;;;;;;2.70;1.10;;;11.20;99.90;;;;;;5049835;28;20404;-86
2023/03/18 05:29:47;;;;;;;3.58;1.48;;;11.30;99.90;;;;;;5063220;28;20417;-85
2023/03/18 05:32:15;;;;;;;3.83;1.15;;;11.40;99.90;;;;;;5049891;28;20421;-85
2023/03/18 05:34:42;;;;;;;3.60;1.20;;;11.40;99.90;;;;;;5069492;28;20407;-85
2023/03/18 05:37:12;;;;;;;3.17;1.20;;;11.40;99.90;;;;;;5051273;28;20431;-86
2023/03/18 05:39:41;;;;;;;3.38;1.02;;;11.50;99.90;;;;;;5051650;28;20412;-86
2023/03/18 05:42:08;;;;;;;4.40;1.20;;;11.60;99.90;;;;;;5064228;28;20415;-86
2023/03/18 05:44:35;;;;;;;3.42;1.25;;;11.70;99.90;;;;;;5054962;28;20403;-86
2023/03/18 05:47:03;;;;;;;3.30;1.10;;;11.70;99.90;;;;;;5047270;28;20476;-85
2023/03/18 05:49:30;;;;;;;5.18;1.13;;;11.70;99.90;;;;;;5070918;28;20441;-85
2023/03/18 05:52:02;;;;;;;3.45;1.15;;;11.70;99.90;;;;;;5065232;28;20414;-86
2023/03/18 05:54:28;;;;;;;3.10;1.13;;;11.60;99.90;;;;;;5066788;28;20429;-85
2023/03/18 05:56:57;;;;;;;3.97;1.35;;;11.60;99.90;;;;;;5050599;28;20404;-85
2023/03/18 05:59:23;;;;;;;4.00;1.20;;;11.60;99.90;;;;;;5052325;28;20442;-85
2023/03/18 06:01:51;;;;;;;3.75;1.20;;;11.70;99.90;;;;;;5056306;28;20438;-86
2023/03/18 06:04:19;;;;;;;4.97;1.50;;;11.70;99.90;;;;;;5071158;28;20439;-85
2023/03/18 06:06:47;;;;;;;3.22;1.20;;;11.70;99.90;;;;;;5055332;28;20498;-85
2023/03/18 06:09:15;;;;;;;4.78;1.35;;;11.80;99.90;;;;;;5050646;28;20422;-85
2023/03/18 06:11:43;;;;;;;2.47;1.10;;;11.80;99.90;;;;;;5051032;28;20411;-85
2023/03/18 06:14:10;;;;;;;3.83;1.20;;;11.90;99.90;;;;;;5065604;28;20407;-86
2023/03/18 06:16:41;;;;;;;2.65;1.00;;;12.10;99.90;;;;;;5049037;28;20404;-86
2023/03/18 06:19:11;;;;;;;3.05;1.00;;;12.20;99.90;;;;;;5051782;28;20436;-85
2023/03/18 06:21:39;;;;;;;3.67;1.10;;;12.30;99.90;;;;;;5047573;28;20407;-85
2023/03/18 06:24:07;;;;;;;3.17;1.10;;;12.40;99.90;;;;;;5049667;28;20411;-85
2023/03/18 06:26:33;;;;;;;2.25;1.00;;;12.50;99.90;;;;;;5067352;28;20934;-86
2023/03/18 06:28:59;;;;;;;1.85;0.82;;;12.60;99.90;;;;;;5052013;28;20753;-85
2023/03/18 06:31:26;;;;;;;2.50;1.00;;;12.80;99.90;;;;;;5049405;28;20606;-85
2023/03/18 06:34:01;;;;;;;1.77;0.83;;;12.90;99.90;;;;;;5049150;28;20429;-86
2023/03/18 06:36:28;;;;;;;3.17;1.03;;;13.00;99.90;;;;;;5049147;28;20920;-86
2023/03/18 06:38:54;;;;;;;2.85;0.98;;;13.10;99.90;;;;;;5061695;28;21215;-85
2023/03/18 06:41:21;;;;;;;4.10;1.05;;;13.10;99.90;;;;;;5049116;28;20509;-85
2023/03/18 06:43:49;;;;;;;2.85;1.00;;;13.10;99.90;;;;;;5065922;28;20472;-84
2023/03/18 06:46:22;;;;;;;3.08;1.15;;;13.00;99.90;;;;;;5053141;28;21006;-84
2023/03/18 06:48:49;;;;;;;3.63;1.23;;;13.00;99.90;;;;;;5074412;28;20449;-84
2023/03/18 06:51:15;;;;;;;2.23;0.90;;;13.00;99.90;;;;;;5048548;28;20415;-84
2023/03/18 06:53:42;;;;;;;3.53;1.13;;;13.00;99.90;;;;;;5068789;28;20404;-83
2023/03/18 06:56:08;;;;;;;4.30;1.38;;;13.00;99.90;;;;;;5080634;28;20503;-85
2023/03/18 06:58:35;;;;;;;3.92;1.30;;;13.00;99.90;;;;;;5068316;28;20423;-84
2023/03/18 07:01:01;;;;;;;4.50;1.45;;;13.00;99.90;;;;;;5049720;28;20417;-84
2023/03/18 07:03:28;;;;;;;5.47;1.50;;;13.00;99.90;;;;;;5065481;28;20411;-85
2023/03/18 07:05:54;;;;;;;4.70;1.50;;;13.00;99.90;;;;;;5041768;28;22653;-84
2023/03/18 07:08:21;;;;;;;5.70;1.27;;;13.00;99.90;;;;;;5050273;28;20500;-85
2023/03/18 07:10:51;;;;;;;4.63;1.23;;;13.00;99.90;;;;;;5065828;28;20419;-85
2023/03/18 07:13:18;;;;;;;4.15;1.27;;;12.90;99.90;;;;;;5064939;28;20887;-85
2023/03/18 07:15:48;;;;;;;3.35;1.25;;;12.70;99.90;;;;;;5051245;28;20439;-85
2023/03/18 07:18:16;;;;;;;3.05;1.10;;;12.50;99.90;;;;;;5060992;28;20421;-86
2023/03/18 07:20:43;;;;;;;3.80;1.33;;;12.30;99.90;;;;;;5052119;28;20408;-85
2023/03/18 07:23:18;;;;;;;2.97;1.25;;;12.20;99.90;;;;;;5051874;28;20421;-85
2023/03/18 07:25:45;;;;;;;3.45;1.20;;;12.10;99.90;;;;;;5066666;28;20460;-85
2023/03/18 07:28:12;;;;;;;3.42;1.13;;;12.00;99.90;;;;;;5052178;28;20488;-84
2023/03/18 07:30:40;;;;;;;3.45;1.08;;;11.80;99.90;;;;;;5055203;28;20411;-84
2023/03/18 07:33:07;;;;;;;2.43;1.13;;;11.80;99.90;;;;;;5087102;28;20411;-85
2023/03/18 07:35:33;;;;;;;3.90;1.20;;;11.90;99.90;;;;;;5079593;28;20433;-85
2023/03/18 07:38:02;;;;;;;3.20;1.08;;;11.90;99.90;;;;;;5047470;28;20484;-84
2023/03/18 08:11:59;;;;;;;1.77;0.80;;;13.00;99.90;;;;;;5054341;27;20412;-72
2023/03/18 08:14:25;;;;;;;1.55;0.70;;;12.70;99.90;;;;;;5031280;28;20524;-72
2023/03/18 08:16:51;;;;;;;1.75;0.70;;;12.20;99.90;;;;;;5016886;28;21079;-72
2023/03/18 08:19:18;;;;;;;3.10;1.00;;;12.10;99.90;;;;;;5019446;28;20418;-72
2023/03/18 08:21:44;;;;;;;1.98;0.80;;;11.80;99.90;;;;;;5035103;28;20943;-72
2023/03/18 08:24:10;;;;;;;3.00;0.90;;;11.50;99.90;;;;;;5032274;28;20531;-72
2023/03/18 08:26:37;;;;;;;2.47;0.93;;;11.40;99.90;;;;;;5036413;28;20448;-72
2023/03/18 08:29:03;;;;;;;2.72;1.00;;;11.30;99.90;;;;;;5045646;28;20426;-72
2023/03/18 08:31:30;;;;;;;2.47;0.95;;;11.30;99.90;;;;;;5020930;28;20444;-72
2023/03/18 08:33:58;;;;;;;2.85;0.90;;;11.20;99.90;;;;;;5038685;28;20410;-72
2023/03/18 08:36:26;;;;;;;2.47;0.87;;;11.40;99.90;;;;;;5023658;28;20905;-72
2023/03/18 08:38:52;;;;;;;2.33;0.85;;;11.50;99.90;;;;;;5037646;28;20461;-72
2023/03/18 08:41:19;;;;;;;3.72;0.93;;;11.50;99.90;;;;;;5036215;28;20410;-72
2023/03/18 08:43:46;;;;;;;4.18;0.80;;;11.40;99.90;;;;;;5018117;28;20441;-72
2023/03/18 08:46:14;;;;;;;1.80;0.73;;;11.20;99.90;;;;;;5016006;28;20425;-71
2023/03/18 08:48:40;;;;;;;1.45;0.80;;;11.20;99.90;;;;;;5034953;28;20504;-71
2023/03/18 08:51:09;;;;;;;1.63;0.82;;;11.20;99.90;;;;;;5036202;28;20430;-71
2023/03/18 08:53:37;;;;;;;2.30;0.93;;;11.20;99.90;;;;;;5033153;28;20986;-72
2023/03/18 08:56:05;;;;;;;2.45;1.02;;;11.20;99.90;;;;;;5034733;28;20411;-71
2023/03/18 08:58:34;;;;;;;4.17;1.47;;;11.60;99.90;;;;;;5038756;28;20445;-72
2023/03/18 09:01:04;;;;;;;6.15;1.55;;;11.90;99.90;;;;;;5034769;28;20465;-71
2023/03/18 09:03:32;;;;;;;6.40;1.65;;;12.00;99.90;;;;;;5035965;28;20429;-71
2023/03/18 09:05:59;;;;;;;10.68;1.90;;;12.20;99.90;;;;;;5016863;28;20424;-72
2023/03/18 09:08:27;;;;;;;7.07;1.73;;;12.20;99.90;;;;;;5019981;28;21039;-71
2023/03/18 09:10:54;;;;;;;13.05;2.38;;;12.40;99.90;;;;;;5032999;28;20453;-71
2023/03/18 09:13:21;;;;;;;10.32;2.22;;;12.60;99.90;;;;;;5021630;28;20917;-71
2023/03/18 09:15:48;;;;;;;13.18;2.13;;;12.70;99.90;;;;;;5022066;28;20995;-72
2023/03/18 09:18:17;;;;;;;7.13;1.80;;;12.90;99.90;;;;;;5007472;28;20406;-71
2023/03/18 09:20:45;;;;;;;9.38;1.42;;;12.70;99.90;;;;;;5015581;28;20821;-71
2023/03/18 09:23:13;;;;;;;10.50;1.67;;;12.70;99.90;;;;;;5021304;28;20422;-71
2023/03/18 09:25:43;;;;;;;5.72;1.55;;;12.70;99.90;;;;;;5025586;28;21239;-71
2023/03/18 09:28:10;;;;;;;5.72;1.35;;;12.90;99.90;;;;;;5018000;28;20422;-71
2023/03/18 09:30:37;;;;;;;6.55;1.35;;;13.00;99.90;;;;;;5029974;28;20421;-72
2023/03/18 09:33:08;;;;;;;6.20;1.27;;;12.90;99.90;;;;;;5020262;28;20424;-72
2023/03/18 09:35:35;;;;;;;6.97;1.58;;;13.10;99.90;;;;;;5018485;28;20415;-71
2023/03/18 09:38:01;;;;;;;3.05;1.10;;;13.20;99.90;;;;;;5021779;28;20472;-71
2023/03/18 09:40:31;;;;;;;4.82;1.30;;;13.40;99.90;;;;;;5019910;28;20924;-71
2023/03/18 09:43:29;;;;;;;3.43;1.23;;;13.00;99.90;;;;;;5022734;28;20429;-72
2023/03/18 09:46:45;;;;;;;5.80;1.30;;;13.00;99.90;;;;;;5021465;28;20427;-71
2023/03/18 09:49:34;;;;;;;4.97;1.30;;;13.30;99.90;;;;;;5019118;28;20422;-71
2023/03/18 09:52:13;;;;;;;3.63;1.45;;;13.30;99.90;;;;;;5019623;28;20447;-72
2023/03/18 09:55:07;;;;;;;4.80;1.58;;;13.40;99.90;;;;;;5005097;28;20419;-71
2023/03/18 09:57:42;;;;;;;4.22;1.40;;;13.40;99.90;;;;;;5053150;28;21175;-72
2023/03/18 10:00:19;;;;;;;7.80;1.60;;;13.40;99.90;;;;;;5021135;28;20419;-72
2023/03/18 10:03:18;;;;;;;4.40;1.20;;;13.30;99.90;;;;;;4993555;28;20786;-72
2023/03/18 10:05:55;;;;;;;5.63;1.60;;;13.30;99.90;;;;;;4983935;28;20425;-72
2023/03/18 10:08:27;;;;;;;3.03;1.25;;;12.90;99.90;;;;;;5019523;28;20439;-71
2023/03/18 10:10:54;;;;;;;4.72;1.40;;;13.00;99.90;;;;;;5019964;28;20461;-72
2023/03/18 10:13:36;;;;;;;3.53;1.30;;;13.10;99.90;;;;;;5037370;28;20454;-71
2023/03/18 10:16:09;;;;;;;3.30;1.30;;;12.90;99.90;;;;;;5018767;28;20900;-72
2023/03/18 10:18:40;;;;;;;4.53;1.25;;;12.90;99.90;;;;;;5012547;28;21027;-72
2023/03/18 10:22:04;;;;;;;3.95;1.10;;;13.00;99.90;;;;;;5018744;28;20459;-72
2023/03/18 10:25:08;;;;;;;2.95;1.02;;;12.80;99.90;;;;;;5007658;28;21097;-71
2023/03/18 10:27:41;;;;;;;3.65;1.20;;;12.60;99.90;;;;;;5020973;28;20438;-71
2023/03/18 10:30:59;;;;;;;4.37;1.30;;;12.40;99.90;;;;;;5019129;28;20418;-72
2023/03/18 10:34:20;;;;;;;5.25;1.30;;;12.30;99.90;;;;;;5020094;28;20422;-73
2023/03/18 10:37:00;;;;;;;4.35;1.20;;;12.50;99.90;;;;;;4977522;28;21129;-71
2023/03/18 10:39:28;;;;;;;5.55;1.30;;;12.60;99.90;;;;;;5000943;28;21012;-71
2023/03/18 10:41:59;;;;;;;5.53;1.43;;;12.60;99.90;;;;;;5014814;28;21185;-71
2023/03/18 11:39:47;;;;;;;1.45;0.75;;;12.70;99.90;;;;;;5013612;28;20396;-74
2023/03/18 11:42:21;;;;;;;1.85;0.90;;;12.60;99.90;;;;;;5026196;28;20753;-73
2023/03/18 11:44:55;;;;;;;2.00;1.00;;;12.60;99.90;;;;;;5012681;28;20588;-73
2023/03/18 11:47:31;;;;;;;1.83;0.77;;;12.60;99.90;;;;;;5032828;28;20433;-73
2023/03/18 11:50:10;;;;;;;1.57;0.80;;;12.60;99.90;;;;;;5018094;28;20435;-73
2023/03/18 11:53:13;;;;;;;3.03;1.00;;;12.70;99.90;;;;;;5026808;28;20413;-73
2023/03/18 11:56:08;;;;;;;2.88;1.13;;;12.70;99.90;;;;;;5015926;28;20523;-73
2023/03/18 11:59:24;;;;;;;3.50;1.30;;;12.70;99.90;;;;;;5007375;28;20427;-73
2023/03/18 12:02:23;;;;;;;2.50;1.00;;;12.60;99.90;;;;;;5001345;28;20504;-73
2023/03/18 12:05:04;;;;;;;3.15;1.17;;;12.60;99.90;;;;;;5017046;28;20419;-74
2023/03/18 12:08:00;;;;;;;2.88;1.13;;;12.50;99.90;;;;;;5014061;28;20460;-73
2023/03/18 12:10:40;;;;;;;3.47;1.35;;;12.60;99.90;;;;;;5018437;28;20418;-73
2023/03/18 12:13:33;;;;;;;3.20;1.25;;;12.50;99.90;;;;;;5014254;28;20427;-73
2023/03/18 12:16:20;;;;;;;4.05;1.23;;;12.50;99.90;;;;;;5011935;28;21180;-73
2023/03/18 12:19:08;;;;;;;4.22;1.38;;;12.60;99.90;;;;;;5020906;28;20428;-73
2023/03/18 12:21:54;;;;;;;2.55;1.20;;;12.60;99.90;;;;;;5017730;28;20525;-73
2023/03/18 12:25:01;;;;;;;3.50;1.20;;;12.60;99.90;;;;;;5020226;28;20416;-73
2023/03/18 12:28:08;;;;;;;3.25;1.30;;;12.70;99.90;;;;;;5015683;28;20424;-73
2023/03/18 12:30:52;;;;;;;2.78;1.15;;;12.70;99.90;;;;;;5008363;28;20425;-74
2023/03/18 12:33:43;;;;;;;3.30;1.13;;;12.50;99.90;;;;;;5011998;28;20408;-73
2023/03/18 12:36:22;;;;;;;3.33;1.17;;;12.30;99.90;;;;;;5017496;28;20790;-73
2023/03/18 12:39:28;;;;;;;3.78;1.10;;;12.40;99.90;;;;;;5026598;28;20424;-73
2023/03/18 12:42:16;;;;;;;4.20;1.10;;;12.10;99.90;;;;;;5026418;28;20418;-75
2023/03/18 12:45:18;;;;;;;4.55;1.25;;;11.90;99.90;;;;;;5037685;28;20403;-75
2023/03/18 12:47:57;;;;;;;3.15;1.30;;;11.80;99.90;;;;;;5008804;28;20546;-75
2023/03/18 12:50:27;;;;;;;4.45;1.20;;;11.80;99.90;;;;;;5055002;28;20543;-75
2023/03/18 12:53:39;;;;;;;4.80;1.20;;;12.10;99.90;;;;;;5037341;28;20423;-75
2023/03/18 12:56:20;;;;;;;2.87;1.07;;;12.30;99.90;;;;;;5049830;28;20415;-73
2023/03/18 12:59:02;;;;;;;3.63;1.23;;;12.40;99.90;;;;;;5034867;28;20430;-73
2023/03/18 13:01:37;;;;;;;4.35;1.23;;;12.10;99.90;;;;;;5005124;28;20419;-74
2023/03/18 13:04:17;;;;;;;4.00;1.20;;;12.30;99.90;;;;;;5016007;28;20412;-74
2023/03/18 13:07:16;;;;;;;2.80;1.10;;;12.30;99.90;;;;;;5048736;28;20477;-74
2023/03/18 13:10:02;;;;;;;4.50;1.33;;;12.40;99.90;;;;;;5037186;28;20418;-73
2023/03/18 13:12:40;;;;;;;4.00;1.17;;;12.50;99.90;;;;;;5004777;28;20416;-74
2023/03/18 13:15:31;;;;;;;4.10;1.20;;;12.00;99.90;;;;;;5021640;28;20462;-74
2023/03/18 13:18:26;;;;;;;3.45;1.20;;;11.80;99.90;;;;;;5021319;28;20861;-74
2023/03/18 13:20:57;;;;;;;4.07;1.08;;;11.80;99.90;;;;;;5013985;28;20489;-74
2023/03/18 13:23:48;;;;;;;5.13;1.30;;;11.70;99.90;;;;;;5050207;28;20414;-74
2023/03/18 13:27:02;;;;;;;3.20;1.13;;;11.60;99.90;;;;;;5015967;28;20509;-74
2023/03/18 13:30:04;;;;;;;3.28;1.00;;;11.60;99.90;;;;;;5022973;28;20780;-74
2023/03/18 13:33:19;;;;;;;2.72;0.95;;;11.50;99.90;;;;;;5014550;28;20740;-74
2023/03/18 13:36:10;;;;;;;3.00;1.10;;;11.40;99.90;;;;;;4993079;28;20421;-74
2023/03/18 13:39:07;;;;;;;2.40;0.90;;;11.40;99.90;;;;;;5006835;28;20504;-75
2023/03/18 13:41:42;;;;;;;2.20;0.85;;;11.40;99.90;;;;;;5025866;28;20925;-75
2023/03/18 13:44:40;;;;;;;2.67;0.90;;;11.40;99.90;;;;;;5049690;28;20407;-75
2023/03/18 13:47:16;;;;;;;2.65;1.05;;;11.40;99.90;;;;;;5011755;28;20542;-74
2023/03/18 13:49:43;;;;;;;1.95;1.17;;;11.40;99.90;;;;;;5018250;28;21040;-74
2023/03/18 13:52:44;;;;;;;2.58;1.05;;;11.40;99.90;;;;;;5021762;28;20451;-75
2023/03/18 13:55:41;;;;;;;5.32;1.20;;;11.30;99.90;;;;;;4996492;28;20435;-75
2023/03/18 13:58:47;;;;;;;3.47;1.20;;;11.30;99.90;;;;;;5016844;28;21071;-74
2023/03/18 14:01:40;;;;;;;2.53;1.00;;;11.20;99.90;;;;;;5015611;28;20934;-74
2023/03/18 14:04:58;;;;;;;2.72;0.90;;;11.10;99.90;;;;;;5014909;28;20415;-74
2023/03/18 14:07:26;;;;;;;3.73;1.00;;;11.10;99.90;;;;;;5013885;28;20567;-75
2023/03/18 14:10:02;;;;;;;3.03;0.80;;;11.20;99.90;;;;;;4984389;28;20424;-74
2023/03/18 14:12:33;;;;;;;2.92;1.02;;;11.20;99.90;;;;;;5010256;28;20417;-75
2023/03/18 14:15:11;;;;;;;4.40;1.00;;;11.20;99.90;;;;;;5046463;28;20431;-74
2023/03/18 14:17:46;;;;;;;3.08;1.20;;;11.20;99.90;;;;;;5031616;28;21015;-74
2023/03/18 14:20:16;;;;;;;2.58;0.90;;;11.10;99.90;;;;;;5019754;28;20782;-75
2023/03/18 14:22:46;;;;;;;2.45;0.80;;;11.10;99.90;;;;;;5016892;28;20784;-74
2023/03/18 14:25:24;;;;;;;2.42;1.10;;;11.10;99.90;;;;;;5005517;28;20493;-75
2023/03/18 14:27:58;;;;;;;5.03;1.92;;;11.20;99.90;;;;;;5014469;28;20451;-74
2023/03/18 14:30:55;;;;;;;3.95;1.80;;;11.30;99.90;;;;;;5038615;28;20430;-73
2023/03/18 14:33:21;;;;;;;3.53;1.50;;;11.30;99.90;;;;;;5019175;28;20462;-73
2023/03/18 14:36:07;;;;;;;4.40;1.70;;;11.10;99.90;;;;;;5021460;28;20417;-73
2023/03/18 14:39:05;;;;;;;5.43;2.00;;;11.10;99.90;;;;;;5021989;28;20458;-73
2023/03/18 14:41:44;;;;;;;5.18;2.47;;;11.10;99.90;;;;;;5046858;28;20419;-73
2023/03/18 14:44:40;;;;;;;3.60;1.83;;;11.00;99.90;;;;;;5018339;28;20431;-73
2023/03/18 14:47:40;;;;;;;5.05;1.67;;;10.80;99.90;;;;;;5020776;28;21076;-73
2023/03/18 14:50:29;;;;;;;3.60;1.30;;;10.80;99.90;;;;;;5009468;28;20566;-74